sensor_id;sensor_type;location;lat;lon;timestamp;P1;durP1;ratioP1;P2;durP2;ratioP2
75207;SDS011;63795;55.684;37.864;2022-10-16T00:03:16;7.75;;;2.38;;
75207;SDS011;63795;55.684;37.864;2022-10-16T00:08:17;9.57;;;4.82;;
75207;SDS011;63795;55.684;37.864;2022-10-16T00:13:17;9.55;;;6.05;;
75207;SDS011;63795;55.684;37.864;2022-10-16T00:18:19;9.30;;;4.75;;
75207;SDS011;63795;55.684;37.864;2022-10-16T00:23:20;10.32;;;2.85;;
75207;SDS011;63795;55.684;37.864;2022-10-16T00:28:21;8.23;;;2.42;;
75207;SDS011;63795;55.684;37.864;2022-10-16T00:33:22;9.80;;;3.00;;
75207;SDS011;63795;55.684;37.864;2022-10-16T00:38:23;6.97;;;2.65;;
75207;SDS011;63795;55.684;37.864;2022-10-16T00:49:29;9.85;;;2.20;;
75207;SDS011;63795;55.684;37.864;2022-10-16T00:59:39;12.10;;;7.53;;
75207;SDS011;63795;55.684;37.864;2022-10-16T01:04:43;13.32;;;3.47;;
75207;SDS011;63795;55.684;37.864;2022-10-16T01:20:47;14.10;;;3.22;;
75207;SDS011;63795;55.684;37.864;2022-10-16T01:31:52;10.38;;;3.50;;
75207;SDS011;63795;55.684;37.864;2022-10-16T01:37:03;8.60;;;4.15;;
75207;SDS011;63795;55.684;37.864;2022-10-16T01:42:16;8.00;;;3.65;;
75207;SDS011;63795;55.684;37.864;2022-10-16T01:47:21;8.50;;;1.95;;
75207;SDS011;63795;55.684;37.864;2022-10-16T01:52:25;7.95;;;3.30;;
75207;SDS011;63795;55.684;37.864;2022-10-16T01:57:28;7.80;;;4.93;;
75207;SDS011;63795;55.684;37.864;2022-10-16T02:02:31;9.30;;;3.17;;
75207;SDS011;63795;55.684;37.864;2022-10-16T02:07:32;8.85;;;4.30;;
75207;SDS011;63795;55.684;37.864;2022-10-16T02:12:33;9.30;;;3.35;;
75207;SDS011;63795;55.684;37.864;2022-10-16T02:17:39;7.68;;;3.58;;
75207;SDS011;63795;55.684;37.864;2022-10-16T02:22:40;8.20;;;4.32;;
75207;SDS011;63795;55.684;37.864;2022-10-16T02:32:59;10.18;;;3.88;;
75207;SDS011;63795;55.684;37.864;2022-10-16T02:38:02;10.00;;;5.80;;
75207;SDS011;63795;55.684;37.864;2022-10-16T02:43:05;7.78;;;3.00;;
75207;SDS011;63795;55.684;37.864;2022-10-16T02:48:05;8.80;;;6.38;;
75207;SDS011;63795;55.684;37.864;2022-10-16T02:53:06;15.65;;;4.25;;
75207;SDS011;63795;55.684;37.864;2022-10-16T02:58:07;12.15;;;6.03;;
75207;SDS011;63795;55.684;37.864;2022-10-16T03:03:08;10.07;;;4.65;;
75207;SDS011;63795;55.684;37.864;2022-10-16T03:08:08;9.45;;;3.63;;
75207;SDS011;63795;55.684;37.864;2022-10-16T03:13:09;7.68;;;3.03;;
75207;SDS011;63795;55.684;37.864;2022-10-16T03:18:09;10.60;;;3.53;;
75207;SDS011;63795;55.684;37.864;2022-10-16T03:23:10;5.43;;;2.00;;
75207;SDS011;63795;55.684;37.864;2022-10-16T03:28:11;13.73;;;5.43;;
75207;SDS011;63795;55.684;37.864;2022-10-16T03:33:12;12.57;;;4.15;;
75207;SDS011;63795;55.684;37.864;2022-10-16T03:38:12;10.32;;;6.00;;
75207;SDS011;63795;55.684;37.864;2022-10-16T03:43:13;8.80;;;3.75;;
75207;SDS011;63795;55.684;37.864;2022-10-16T03:48:13;8.45;;;4.05;;
75207;SDS011;63795;55.684;37.864;2022-10-16T03:53:14;14.68;;;4.90;;
75207;SDS011;63795;55.684;37.864;2022-10-16T03:58:15;14.02;;;7.70;;
75207;SDS011;63795;55.684;37.864;2022-10-16T04:03:16;10.07;;;3.38;;
75207;SDS011;63795;55.684;37.864;2022-10-16T04:08:17;11.32;;;3.92;;
75207;SDS011;63795;55.684;37.864;2022-10-16T04:13:18;7.75;;;3.15;;
75207;SDS011;63795;55.684;37.864;2022-10-16T04:18:19;9.40;;;3.72;;
75207;SDS011;63795;55.684;37.864;2022-10-16T04:23:19;9.23;;;3.30;;
75207;SDS011;63795;55.684;37.864;2022-10-16T04:28:20;10.73;;;6.40;;
75207;SDS011;63795;55.684;37.864;2022-10-16T04:33:21;8.80;;;3.80;;
75207;SDS011;63795;55.684;37.864;2022-10-16T04:38:22;8.93;;;3.47;;
75207;SDS011;63795;55.684;37.864;2022-10-16T04:43:22;8.38;;;3.65;;
75207;SDS011;63795;55.684;37.864;2022-10-16T04:48:23;8.13;;;3.60;;
75207;SDS011;63795;55.684;37.864;2022-10-16T04:53:24;8.93;;;5.50;;
75207;SDS011;63795;55.684;37.864;2022-10-16T04:58:24;10.48;;;6.13;;
75207;SDS011;63795;55.684;37.864;2022-10-16T05:03:25;15.20;;;4.43;;
75207;SDS011;63795;55.684;37.864;2022-10-16T05:08:25;9.80;;;6.65;;
75207;SDS011;63795;55.684;37.864;2022-10-16T05:13:26;10.90;;;6.22;;
75207;SDS011;63795;55.684;37.864;2022-10-16T05:18:26;11.52;;;5.75;;
75207;SDS011;63795;55.684;37.864;2022-10-16T05:23:27;7.93;;;4.05;;
75207;SDS011;63795;55.684;37.864;2022-10-16T05:28:28;8.63;;;4.13;;
75207;SDS011;63795;55.684;37.864;2022-10-16T05:33:30;10.60;;;4.35;;
75207;SDS011;63795;55.684;37.864;2022-10-16T05:38:35;13.25;;;4.32;;
75207;SDS011;63795;55.684;37.864;2022-10-16T05:43:36;9.40;;;4.93;;
75207;SDS011;63795;55.684;37.864;2022-10-16T05:48:37;11.02;;;5.63;;
75207;SDS011;63795;55.684;37.864;2022-10-16T05:53:38;10.35;;;8.10;;
75207;SDS011;63795;55.684;37.864;2022-10-16T05:58:39;11.52;;;8.32;;
75207;SDS011;63795;55.684;37.864;2022-10-16T06:03:40;15.07;;;7.97;;
75207;SDS011;63795;55.684;37.864;2022-10-16T06:08:44;11.18;;;7.45;;
75207;SDS011;63795;55.684;37.864;2022-10-16T06:13:48;10.60;;;7.68;;
75207;SDS011;63795;55.684;37.864;2022-10-16T06:18:53;16.60;;;8.10;;
75207;SDS011;63795;55.684;37.864;2022-10-16T06:24:00;13.38;;;8.52;;
75207;SDS011;63795;55.684;37.864;2022-10-16T06:29:01;10.82;;;8.05;;
75207;SDS011;63795;55.684;37.864;2022-10-16T06:34:01;10.55;;;7.28;;
75207;SDS011;63795;55.684;37.864;2022-10-16T06:39:04;14.68;;;8.90;;
75207;SDS011;63795;55.684;37.864;2022-10-16T06:44:07;13.13;;;8.13;;
75207;SDS011;63795;55.684;37.864;2022-10-16T06:49:08;12.05;;;6.88;;
75207;SDS011;63795;55.684;37.864;2022-10-16T06:54:09;14.43;;;8.70;;
75207;SDS011;63795;55.684;37.864;2022-10-16T06:59:09;13.32;;;8.35;;
75207;SDS011;63795;55.684;37.864;2022-10-16T07:04:10;10.52;;;4.55;;
75207;SDS011;63795;55.684;37.864;2022-10-16T07:09:11;15.48;;;6.35;;
75207;SDS011;63795;55.684;37.864;2022-10-16T07:14:14;9.70;;;6.35;;
75207;SDS011;63795;55.684;37.864;2022-10-16T07:19:17;12.52;;;6.63;;
75207;SDS011;63795;55.684;37.864;2022-10-16T07:24:18;9.55;;;3.55;;
75207;SDS011;63795;55.684;37.864;2022-10-16T07:29:19;16.02;;;8.15;;
75207;SDS011;63795;55.684;37.864;2022-10-16T07:34:22;15.52;;;7.72;;
75207;SDS011;63795;55.684;37.864;2022-10-16T07:39:22;14.13;;;7.47;;
75207;SDS011;63795;55.684;37.864;2022-10-16T07:44:23;12.10;;;5.32;;
75207;SDS011;63795;55.684;37.864;2022-10-16T07:49:24;17.42;;;8.35;;
75207;SDS011;63795;55.684;37.864;2022-10-16T07:54:24;12.48;;;4.57;;
75207;SDS011;63795;55.684;37.864;2022-10-16T07:59:25;13.82;;;7.78;;
75207;SDS011;63795;55.684;37.864;2022-10-16T08:04:26;12.52;;;7.35;;
75207;SDS011;63795;55.684;37.864;2022-10-16T08:09:26;12.70;;;6.53;;
75207;SDS011;63795;55.684;37.864;2022-10-16T08:14:27;17.08;;;4.75;;
75207;SDS011;63795;55.684;37.864;2022-10-16T08:19:28;11.27;;;7.25;;
75207;SDS011;63795;55.684;37.864;2022-10-16T08:24:29;14.63;;;5.20;;
75207;SDS011;63795;55.684;37.864;2022-10-16T08:29:31;15.40;;;4.13;;
75207;SDS011;63795;55.684;37.864;2022-10-16T13:10:25;5.78;;;3.45;;
75207;SDS011;63795;55.684;37.864;2022-10-16T13:26:21;10.93;;;3.95;;
75207;SDS011;63795;55.684;37.864;2022-10-16T13:31:23;4.72;;;3.25;;
75207;SDS011;63795;55.684;37.864;2022-10-16T13:36:29;8.55;;;5.45;;
75207;SDS011;63795;55.684;37.864;2022-10-16T13:41:34;4.05;;;3.58;;
75207;SDS011;63795;55.684;37.864;2022-10-16T13:46:37;14.38;;;8.88;;
75207;SDS011;63795;55.684;37.864;2022-10-16T13:51:37;8.98;;;4.88;;
75207;SDS011;63795;55.684;37.864;2022-10-16T13:56:38;6.88;;;3.40;;
75207;SDS011;63795;55.684;37.864;2022-10-16T14:01:41;10.13;;;3.83;;
75207;SDS011;63795;55.684;37.864;2022-10-16T14:06:44;7.72;;;4.55;;
75207;SDS011;63795;55.684;37.864;2022-10-16T14:11:50;6.22;;;4.30;;
75207;SDS011;63795;55.684;37.864;2022-10-16T14:16:53;10.38;;;5.88;;
75207;SDS011;63795;55.684;37.864;2022-10-16T14:21:54;7.50;;;4.13;;
75207;SDS011;63795;55.684;37.864;2022-10-16T14:26:55;10.30;;;2.95;;
75207;SDS011;63795;55.684;37.864;2022-10-16T14:42:24;10.55;;;7.32;;
75207;SDS011;63795;55.684;37.864;2022-10-16T14:47:25;12.75;;;5.90;;
75207;SDS011;63795;55.684;37.864;2022-10-16T14:52:27;12.80;;;6.07;;
75207;SDS011;63795;55.684;37.864;2022-10-16T14:57:27;9.98;;;7.28;;
75207;SDS011;63795;55.684;37.864;2022-10-16T15:02:35;11.23;;;6.93;;
75207;SDS011;63795;55.684;37.864;2022-10-16T15:07:38;10.05;;;6.30;;
75207;SDS011;63795;55.684;37.864;2022-10-16T15:12:39;14.70;;;6.38;;
75207;SDS011;63795;55.684;37.864;2022-10-16T15:17:40;13.50;;;6.93;;
75207;SDS011;63795;55.684;37.864;2022-10-16T15:22:40;13.25;;;8.10;;
75207;SDS011;63795;55.684;37.864;2022-10-16T15:27:43;12.52;;;7.20;;
75207;SDS011;63795;55.684;37.864;2022-10-16T15:32:44;14.68;;;8.52;;
75207;SDS011;63795;55.684;37.864;2022-10-16T15:37:46;14.15;;;9.63;;
75207;SDS011;63795;55.684;37.864;2022-10-16T15:42:47;12.85;;;8.27;;
75207;SDS011;63795;55.684;37.864;2022-10-16T15:47:49;19.65;;;7.25;;
75207;SDS011;63795;55.684;37.864;2022-10-16T15:52:50;12.77;;;7.78;;
75207;SDS011;63795;55.684;37.864;2022-10-16T15:57:51;15.27;;;7.65;;
75207;SDS011;63795;55.684;37.864;2022-10-16T16:02:52;13.65;;;6.25;;
75207;SDS011;63795;55.684;37.864;2022-10-16T16:07:54;13.05;;;7.88;;
75207;SDS011;63795;55.684;37.864;2022-10-16T16:12:54;13.70;;;7.30;;
75207;SDS011;63795;55.684;37.864;2022-10-16T16:17:55;14.18;;;6.00;;
75207;SDS011;63795;55.684;37.864;2022-10-16T16:22:56;10.07;;;4.68;;
75207;SDS011;63795;55.684;37.864;2022-10-16T16:27:56;11.13;;;7.47;;
75207;SDS011;63795;55.684;37.864;2022-10-16T16:32:57;14.82;;;8.05;;
75207;SDS011;63795;55.684;37.864;2022-10-16T16:37:58;11.20;;;8.07;;
75207;SDS011;63795;55.684;37.864;2022-10-16T16:43:29;13.57;;;7.88;;
75207;SDS011;63795;55.684;37.864;2022-10-16T16:48:31;16.58;;;7.50;;
75207;SDS011;63795;55.684;37.864;2022-10-16T16:53:35;13.65;;;8.02;;
75207;SDS011;63795;55.684;37.864;2022-10-16T16:58:36;12.48;;;7.65;;
75207;SDS011;63795;55.684;37.864;2022-10-16T17:03:37;10.93;;;6.90;;
75207;SDS011;63795;55.684;37.864;2022-10-16T17:08:38;15.82;;;8.63;;
75207;SDS011;63795;55.684;37.864;2022-10-16T17:13:39;13.82;;;9.50;;
75207;SDS011;63795;55.684;37.864;2022-10-16T17:18:43;14.45;;;9.32;;
75207;SDS011;63795;55.684;37.864;2022-10-16T17:23:47;15.55;;;10.00;;
75207;SDS011;63795;55.684;37.864;2022-10-16T17:28:51;14.25;;;7.63;;
75207;SDS011;63795;55.684;37.864;2022-10-16T17:33:53;11.95;;;5.82;;
75207;SDS011;63795;55.684;37.864;2022-10-16T17:38:59;13.40;;;7.82;;
75207;SDS011;63795;55.684;37.864;2022-10-16T17:44:03;15.27;;;7.78;;
75207;SDS011;63795;55.684;37.864;2022-10-16T17:49:08;16.25;;;10.00;;
75207;SDS011;63795;55.684;37.864;2022-10-16T17:54:20;11.68;;;8.55;;
75207;SDS011;63795;55.684;37.864;2022-10-16T17:59:21;12.73;;;9.48;;
75207;SDS011;63795;55.684;37.864;2022-10-16T18:04:22;12.98;;;8.65;;
75207;SDS011;63795;55.684;37.864;2022-10-16T18:09:22;13.07;;;7.32;;
75207;SDS011;63795;55.684;37.864;2022-10-16T18:29:45;12.20;;;6.80;;
75207;SDS011;63795;55.684;37.864;2022-10-16T18:34:47;11.43;;;8.65;;
75207;SDS011;63795;55.684;37.864;2022-10-16T18:39:52;11.57;;;8.18;;
75207;SDS011;63795;55.684;37.864;2022-10-16T18:44:53;16.75;;;10.77;;
75207;SDS011;63795;55.684;37.864;2022-10-16T18:55:20;18.48;;;8.27;;
75207;SDS011;63795;55.684;37.864;2022-10-16T19:00:23;21.00;;;8.85;;
75207;SDS011;63795;55.684;37.864;2022-10-16T19:05:24;13.55;;;7.57;;
75207;SDS011;63795;55.684;37.864;2022-10-16T19:10:26;11.60;;;8.10;;
75207;SDS011;63795;55.684;37.864;2022-10-16T19:15:40;9.63;;;6.15;;
75207;SDS011;63795;55.684;37.864;2022-10-16T19:20:42;11.82;;;6.40;;
75207;SDS011;63795;55.684;37.864;2022-10-16T19:25:42;11.32;;;8.10;;
75207;SDS011;63795;55.684;37.864;2022-10-16T19:30:44;11.90;;;7.65;;
75207;SDS011;63795;55.684;37.864;2022-10-16T19:35:47;11.43;;;7.38;;
75207;SDS011;63795;55.684;37.864;2022-10-16T19:40:48;11.52;;;7.05;;
75207;SDS011;63795;55.684;37.864;2022-10-16T19:45:49;14.63;;;5.57;;
75207;SDS011;63795;55.684;37.864;2022-10-16T19:50:50;10.38;;;6.47;;
75207;SDS011;63795;55.684;37.864;2022-10-16T19:55:51;10.48;;;6.68;;
75207;SDS011;63795;55.684;37.864;2022-10-16T20:00:52;7.55;;;3.13;;
75207;SDS011;63795;55.684;37.864;2022-10-16T20:05:56;7.63;;;5.40;;
75207;SDS011;63795;55.684;37.864;2022-10-16T20:11:00;8.07;;;4.93;;
75207;SDS011;63795;55.684;37.864;2022-10-16T20:16:04;7.30;;;2.75;;
75207;SDS011;63795;55.684;37.864;2022-10-16T20:21:09;10.82;;;6.88;;
75207;SDS011;63795;55.684;37.864;2022-10-16T20:26:14;8.13;;;6.53;;
75207;SDS011;63795;55.684;37.864;2022-10-16T20:31:20;7.65;;;5.63;;
75207;SDS011;63795;55.684;37.864;2022-10-16T20:36:26;8.45;;;4.97;;
75207;SDS011;63795;55.684;37.864;2022-10-16T20:41:29;7.15;;;4.78;;
75207;SDS011;63795;55.684;37.864;2022-10-16T20:46:30;9.07;;;6.13;;
75207;SDS011;63795;55.684;37.864;2022-10-16T20:51:31;9.32;;;7.22;;
75207;SDS011;63795;55.684;37.864;2022-10-16T20:56:33;7.95;;;6.03;;
75207;SDS011;63795;55.684;37.864;2022-10-16T21:01:35;7.35;;;5.63;;
75207;SDS011;63795;55.684;37.864;2022-10-16T21:06:37;6.57;;;4.47;;
75207;SDS011;63795;55.684;37.864;2022-10-16T21:11:39;8.80;;;5.63;;
75207;SDS011;63795;55.684;37.864;2022-10-16T21:16:39;10.85;;;3.78;;
75207;SDS011;63795;55.684;37.864;2022-10-16T21:21:40;7.78;;;5.43;;
75207;SDS011;63795;55.684;37.864;2022-10-16T21:26:40;8.70;;;5.70;;
75207;SDS011;63795;55.684;37.864;2022-10-16T21:31:41;9.30;;;6.63;;
75207;SDS011;63795;55.684;37.864;2022-10-16T21:41:46;8.60;;;6.20;;
75207;SDS011;63795;55.684;37.864;2022-10-16T21:46:49;6.95;;;5.85;;
75207;SDS011;63795;55.684;37.864;2022-10-16T21:51:53;8.02;;;6.25;;
75207;SDS011;63795;55.684;37.864;2022-10-16T21:57:49;9.63;;;6.35;;
75207;SDS011;63795;55.684;37.864;2022-10-16T22:02:49;7.75;;;5.75;;
75207;SDS011;63795;55.684;37.864;2022-10-16T22:07:50;7.70;;;5.88;;
75207;SDS011;63795;55.684;37.864;2022-10-16T22:12:51;8.40;;;5.63;;
75207;SDS011;63795;55.684;37.864;2022-10-16T22:17:54;9.57;;;5.82;;
75207;SDS011;63795;55.684;37.864;2022-10-16T22:22:55;7.30;;;5.68;;
75207;SDS011;63795;55.684;37.864;2022-10-16T22:27:55;7.20;;;4.50;;
75207;SDS011;63795;55.684;37.864;2022-10-16T22:32:56;7.95;;;4.72;;
75207;SDS011;63795;55.684;37.864;2022-10-16T22:37:57;6.78;;;4.28;;
75207;SDS011;63795;55.684;37.864;2022-10-16T22:42:57;9.40;;;4.25;;
75207;SDS011;63795;55.684;37.864;2022-10-16T22:47:58;6.43;;;4.82;;
75207;SDS011;63795;55.684;37.864;2022-10-16T22:52:59;6.35;;;4.93;;
75207;SDS011;63795;55.684;37.864;2022-10-16T22:57:59;6.18;;;5.07;;
75207;SDS011;63795;55.684;37.864;2022-10-16T23:03:01;7.32;;;4.38;;
75207;SDS011;63795;55.684;37.864;2022-10-16T23:08:01;11.55;;;4.75;;
75207;SDS011;63795;55.684;37.864;2022-10-16T23:13:11;10.20;;;5.85;;
75207;SDS011;63795;55.684;37.864;2022-10-16T23:18:16;8.05;;;3.67;;
75207;SDS011;63795;55.684;37.864;2022-10-16T23:23:17;5.65;;;2.47;;
75207;SDS011;63795;55.684;37.864;2022-10-16T23:28:23;9.18;;;5.35;;
75207;SDS011;63795;55.684;37.864;2022-10-16T23:33:26;7.63;;;5.25;;
75207;SDS011;63795;55.684;37.864;2022-10-16T23:38:28;6.75;;;5.18;;
75207;SDS011;63795;55.684;37.864;2022-10-16T23:43:28;6.90;;;5.88;;
75207;SDS011;63795;55.684;37.864;2022-10-16T23:48:29;7.85;;;5.93;;
75207;SDS011;63795;55.684;37.864;2022-10-16T23:53:30;7.82;;;3.95;;
75207;SDS011;63795;55.684;37.864;2022-10-16T23:58:31;6.35;;;4.15;;
